sensor_id;sensor_type;location;lat;lon;timestamp;temperature;humidity
19908;DHT22;10116;53.112;7.356;2023-03-01T00:01:06;24.40;1.00
19908;DHT22;10116;53.112;7.356;2023-03-01T00:03:33;24.40;1.00
19908;DHT22;10116;53.112;7.356;2023-03-01T00:05:59;24.40;1.00
19908;DHT22;10116;53.112;7.356;2023-03-01T00:08:25;24.40;1.00
19908;DHT22;10116;53.112;7.356;2023-03-01T00:11:27;24.40;1.00
19908;DHT22;10116;53.112;7.356;2023-03-01T00:13:55;24.40;1.00
19908;DHT22;10116;53.112;7.356;2023-03-01T00:16:24;24.40;1.00
19908;DHT22;10116;53.112;7.356;2023-03-01T00:18:50;24.40;1.00
19908;DHT22;10116;53.112;7.356;2023-03-01T00:21:16;24.40;1.00
19908;DHT22;10116;53.112;7.356;2023-03-01T00:23:42;24.40;1.00
19908;DHT22;10116;53.112;7.356;2023-03-01T00:26:10;24.40;1.00
19908;DHT22;10116;53.112;7.356;2023-03-01T00:28:36;24.40;1.00
19908;DHT22;10116;53.112;7.356;2023-03-01T00:31:14;24.40;1.00
19908;DHT22;10116;53.112;7.356;2023-03-01T00:33:40;24.40;1.00
19908;DHT22;10116;53.112;7.356;2023-03-01T00:36:06;24.30;1.00
19908;DHT22;10116;53.112;7.356;2023-03-01T00:38:40;24.30;1.00
19908;DHT22;10116;53.112;7.356;2023-03-01T00:41:07;24.30;1.00
19908;DHT22;10116;53.112;7.356;2023-03-01T00:43:33;24.30;1.00
19908;DHT22;10116;53.112;7.356;2023-03-01T00:46:05;24.30;1.00
19908;DHT22;10116;53.112;7.356;2023-03-01T00:48:31;24.30;1.00
19908;DHT22;10116;53.112;7.356;2023-03-01T00:50:57;24.30;1.00
19908;DHT22;10116;53.112;7.356;2023-03-01T00:53:28;24.30;1.00
19908;DHT22;10116;53.112;7.356;2023-03-01T00:55:57;24.30;1.00
19908;DHT22;10116;53.112;7.356;2023-03-01T00:58:23;24.30;1.00
19908;DHT22;10116;53.112;7.356;2023-03-01T01:00:49;24.30;1.00
19908;DHT22;10116;53.112;7.356;2023-03-01T01:03:14;24.30;1.00
19908;DHT22;10116;53.112;7.356;2023-03-01T01:05:40;24.30;1.00
19908;DHT22;10116;53.112;7.356;2023-03-01T01:08:05;24.30;1.00
19908;DHT22;10116;53.112;7.356;2023-03-01T01:10:36;24.30;1.00
19908;DHT22;10116;53.112;7.356;2023-03-01T01:13:02;24.30;1.00
19908;DHT22;10116;53.112;7.356;2023-03-01T01:15:27;24.30;1.00
19908;DHT22;10116;53.112;7.356;2023-03-01T01:17:53;24.30;1.00
19908;DHT22;10116;53.112;7.356;2023-03-01T01:20:19;24.30;1.00
19908;DHT22;10116;53.112;7.356;2023-03-01T01:22:45;24.30;1.00
19908;DHT22;10116;53.112;7.356;2023-03-01T01:25:11;24.30;1.00
19908;DHT22;10116;53.112;7.356;2023-03-01T01:27:36;24.30;1.00
19908;DHT22;10116;53.112;7.356;2023-03-01T01:30:03;24.30;1.00
19908;DHT22;10116;53.112;7.356;2023-03-01T01:32:29;24.30;1.00
19908;DHT22;10116;53.112;7.356;2023-03-01T01:34:55;24.30;1.00
19908;DHT22;10116;53.112;7.356;2023-03-01T01:37:21;24.30;1.00
19908;DHT22;10116;53.112;7.356;2023-03-01T01:39:47;24.30;1.00
19908;DHT22;10116;53.112;7.356;2023-03-01T01:42:17;24.30;1.00
19908;DHT22;10116;53.112;7.356;2023-03-01T01:44:46;24.30;1.00
19908;DHT22;10116;53.112;7.356;2023-03-01T01:47:18;24.30;1.00
19908;DHT22;10116;53.112;7.356;2023-03-01T01:49:48;24.30;1.00
19908;DHT22;10116;53.112;7.356;2023-03-01T01:52:18;24.30;1.00
19908;DHT22;10116;53.112;7.356;2023-03-01T01:55:03;24.30;1.00
19908;DHT22;10116;53.112;7.356;2023-03-01T01:57:48;24.30;1.00
19908;DHT22;10116;53.112;7.356;2023-03-01T02:00:19;24.30;1.00
19908;DHT22;10116;53.112;7.356;2023-03-01T02:02:47;24.30;1.00
19908;DHT22;10116;53.112;7.356;2023-03-01T02:05:34;24.30;1.00
19908;DHT22;10116;53.112;7.356;2023-03-01T02:08:02;24.30;1.00
19908;DHT22;10116;53.112;7.356;2023-03-01T02:10:28;24.30;1.00
19908;DHT22;10116;53.112;7.356;2023-03-01T02:12:54;24.30;1.00
19908;DHT22;10116;53.112;7.356;2023-03-01T02:15:22;24.30;1.00
19908;DHT22;10116;53.112;7.356;2023-03-01T02:17:48;24.30;1.00
19908;DHT22;10116;53.112;7.356;2023-03-01T02:20:21;24.30;1.00
19908;DHT22;10116;53.112;7.356;2023-03-01T02:22:48;24.30;1.00
19908;DHT22;10116;53.112;7.356;2023-03-01T02:25:38;24.30;1.00
19908;DHT22;10116;53.112;7.356;2023-03-01T02:30:36;24.30;1.00
19908;DHT22;10116;53.112;7.356;2023-03-01T02:33:03;24.30;1.00
19908;DHT22;10116;53.112;7.356;2023-03-01T02:35:32;24.30;1.00
19908;DHT22;10116;53.112;7.356;2023-03-01T02:38:00;24.30;1.00
19908;DHT22;10116;53.112;7.356;2023-03-01T02:40:29;24.30;1.00
19908;DHT22;10116;53.112;7.356;2023-03-01T02:42:57;24.30;1.00
19908;DHT22;10116;53.112;7.356;2023-03-01T02:45:25;24.30;1.00
19908;DHT22;10116;53.112;7.356;2023-03-01T02:47:54;24.30;1.00
19908;DHT22;10116;53.112;7.356;2023-03-01T02:55:46;24.30;1.00
19908;DHT22;10116;53.112;7.356;2023-03-01T02:58:12;24.30;1.00
19908;DHT22;10116;53.112;7.356;2023-03-01T03:00:42;24.30;1.00
19908;DHT22;10116;53.112;7.356;2023-03-01T03:03:14;24.30;1.00
19908;DHT22;10116;53.112;7.356;2023-03-01T03:05:40;24.30;1.00
19908;DHT22;10116;53.112;7.356;2023-03-01T03:08:06;24.30;1.00
19908;DHT22;10116;53.112;7.356;2023-03-01T03:10:36;24.30;1.00
19908;DHT22;10116;53.112;7.356;2023-03-01T03:13:05;24.30;1.00
19908;DHT22;10116;53.112;7.356;2023-03-01T03:15:31;24.30;1.00
19908;DHT22;10116;53.112;7.356;2023-03-01T03:17:57;24.30;1.00
19908;DHT22;10116;53.112;7.356;2023-03-01T03:20:26;24.30;1.00
19908;DHT22;10116;53.112;7.356;2023-03-01T03:22:53;24.30;1.00
19908;DHT22;10116;53.112;7.356;2023-03-01T03:25:20;24.30;1.00
19908;DHT22;10116;53.112;7.356;2023-03-01T03:27:47;24.30;1.00
19908;DHT22;10116;53.112;7.356;2023-03-01T03:30:18;24.30;1.00
19908;DHT22;10116;53.112;7.356;2023-03-01T03:32:46;24.30;1.00
19908;DHT22;10116;53.112;7.356;2023-03-01T03:35:23;24.30;1.00
19908;DHT22;10116;53.112;7.356;2023-03-01T03:37:50;24.30;1.00
19908;DHT22;10116;53.112;7.356;2023-03-01T03:40:34;24.30;1.00
19908;DHT22;10116;53.112;7.356;2023-03-01T03:43:00;24.30;1.00
19908;DHT22;10116;53.112;7.356;2023-03-01T03:45:26;24.30;1.00
19908;DHT22;10116;53.112;7.356;2023-03-01T03:47:52;24.30;1.00
19908;DHT22;10116;53.112;7.356;2023-03-01T03:50:18;24.40;1.00
19908;DHT22;10116;53.112;7.356;2023-03-01T03:52:44;24.40;1.00
19908;DHT22;10116;53.112;7.356;2023-03-01T03:55:11;24.40;1.00
19908;DHT22;10116;53.112;7.356;2023-03-01T03:57:41;24.40;1.00
19908;DHT22;10116;53.112;7.356;2023-03-01T04:00:10;24.50;1.00
19908;DHT22;10116;53.112;7.356;2023-03-01T04:02:45;24.50;1.00
19908;DHT22;10116;53.112;7.356;2023-03-01T04:05:12;24.50;1.00
19908;DHT22;10116;53.112;7.356;2023-03-01T04:07:40;24.60;1.00
19908;DHT22;10116;53.112;7.356;2023-03-01T04:10:09;24.60;1.00
19908;DHT22;10116;53.112;7.356;2023-03-01T04:12:36;24.60;1.00
19908;DHT22;10116;53.112;7.356;2023-03-01T04:15:06;24.60;1.00
19908;DHT22;10116;53.112;7.356;2023-03-01T04:17:41;24.60;1.00
19908;DHT22;10116;53.112;7.356;2023-03-01T04:20:18;24.60;1.00
19908;DHT22;10116;53.112;7.356;2023-03-01T04:25:39;24.60;1.00
19908;DHT22;10116;53.112;7.356;2023-03-01T04:28:05;24.60;1.00
19908;DHT22;10116;53.112;7.356;2023-03-01T04:30:31;24.60;1.00
19908;DHT22;10116;53.112;7.356;2023-03-01T04:33:02;24.60;1.00
19908;DHT22;10116;53.112;7.356;2023-03-01T04:35:28;24.70;1.00
19908;DHT22;10116;53.112;7.356;2023-03-01T04:37:53;24.80;1.00
19908;DHT22;10116;53.112;7.356;2023-03-01T04:40:19;24.80;1.00
19908;DHT22;10116;53.112;7.356;2023-03-01T04:42:46;24.80;1.00
19908;DHT22;10116;53.112;7.356;2023-03-01T04:45:12;24.90;1.00
19908;DHT22;10116;53.112;7.356;2023-03-01T04:47:43;24.90;1.00
19908;DHT22;10116;53.112;7.356;2023-03-01T04:50:11;24.90;1.00
19908;DHT22;10116;53.112;7.356;2023-03-01T04:52:37;24.90;1.00
19908;DHT22;10116;53.112;7.356;2023-03-01T04:55:04;25.00;1.00
19908;DHT22;10116;53.112;7.356;2023-03-01T04:57:30;25.00;1.00
19908;DHT22;10116;53.112;7.356;2023-03-01T04:59:56;25.00;1.00
19908;DHT22;10116;53.112;7.356;2023-03-01T05:02:21;25.00;1.00
19908;DHT22;10116;53.112;7.356;2023-03-01T05:04:47;25.00;1.00
19908;DHT22;10116;53.112;7.356;2023-03-01T05:07:12;25.00;1.00
19908;DHT22;10116;53.112;7.356;2023-03-01T05:09:47;24.90;1.00
19908;DHT22;10116;53.112;7.356;2023-03-01T05:12:14;24.90;1.00
19908;DHT22;10116;53.112;7.356;2023-03-01T05:14:41;24.90;1.00
19908;DHT22;10116;53.112;7.356;2023-03-01T05:17:07;24.90;1.00
19908;DHT22;10116;53.112;7.356;2023-03-01T05:19:33;25.00;1.00
19908;DHT22;10116;53.112;7.356;2023-03-01T05:21:59;24.90;1.00
19908;DHT22;10116;53.112;7.356;2023-03-01T05:24:30;24.90;1.00
19908;DHT22;10116;53.112;7.356;2023-03-01T05:26:56;25.00;1.00
19908;DHT22;10116;53.112;7.356;2023-03-01T05:29:23;24.90;1.00
19908;DHT22;10116;53.112;7.356;2023-03-01T05:31:53;24.90;1.00
19908;DHT22;10116;53.112;7.356;2023-03-01T05:34:26;24.90;1.00
19908;DHT22;10116;53.112;7.356;2023-03-01T05:36:53;24.90;1.00
19908;DHT22;10116;53.112;7.356;2023-03-01T05:39:23;24.90;1.00
19908;DHT22;10116;53.112;7.356;2023-03-01T05:41:53;24.90;1.00
19908;DHT22;10116;53.112;7.356;2023-03-01T05:44:19;24.90;1.00
19908;DHT22;10116;53.112;7.356;2023-03-01T05:46:44;24.90;1.00
19908;DHT22;10116;53.112;7.356;2023-03-01T05:49:11;24.90;1.00
19908;DHT22;10116;53.112;7.356;2023-03-01T05:51:39;25.00;1.00
19908;DHT22;10116;53.112;7.356;2023-03-01T05:54:04;25.00;1.00
19908;DHT22;10116;53.112;7.356;2023-03-01T05:56:36;25.00;1.00
19908;DHT22;10116;53.112;7.356;2023-03-01T05:59:02;25.00;1.00
19908;DHT22;10116;53.112;7.356;2023-03-01T06:01:28;25.00;1.00
19908;DHT22;10116;53.112;7.356;2023-03-01T06:03:55;25.00;1.00
19908;DHT22;10116;53.112;7.356;2023-03-01T06:06:21;25.00;1.00
19908;DHT22;10116;53.112;7.356;2023-03-01T06:08:46;25.00;1.00
19908;DHT22;10116;53.112;7.356;2023-03-01T06:11:12;25.00;1.00
19908;DHT22;10116;53.112;7.356;2023-03-01T06:13:38;25.00;1.00
19908;DHT22;10116;53.112;7.356;2023-03-01T06:16:07;25.00;1.00
19908;DHT22;10116;53.112;7.356;2023-03-01T06:18:33;25.00;1.00
19908;DHT22;10116;53.112;7.356;2023-03-01T06:20:58;25.00;1.00
19908;DHT22;10116;53.112;7.356;2023-03-01T06:23:24;25.00;1.00
19908;DHT22;10116;53.112;7.356;2023-03-01T06:25:50;25.00;1.00
19908;DHT22;10116;53.112;7.356;2023-03-01T06:28:15;25.00;1.00
19908;DHT22;10116;53.112;7.356;2023-03-01T06:30:41;25.00;1.00
19908;DHT22;10116;53.112;7.356;2023-03-01T06:33:07;25.00;1.00
19908;DHT22;10116;53.112;7.356;2023-03-01T06:35:32;24.90;1.00
19908;DHT22;10116;53.112;7.356;2023-03-01T06:38:00;24.90;1.00
19908;DHT22;10116;53.112;7.356;2023-03-01T06:40:26;24.90;1.00
19908;DHT22;10116;53.112;7.356;2023-03-01T06:42:52;24.90;1.00
19908;DHT22;10116;53.112;7.356;2023-03-01T06:45:19;24.90;1.00
19908;DHT22;10116;53.112;7.356;2023-03-01T06:47:44;24.90;1.00
19908;DHT22;10116;53.112;7.356;2023-03-01T06:50:11;24.90;1.00
19908;DHT22;10116;53.112;7.356;2023-03-01T06:52:36;24.90;1.00
19908;DHT22;10116;53.112;7.356;2023-03-01T06:55:02;24.90;1.00
19908;DHT22;10116;53.112;7.356;2023-03-01T06:57:28;24.90;1.00
19908;DHT22;10116;53.112;7.356;2023-03-01T06:59:54;24.80;1.00
19908;DHT22;10116;53.112;7.356;2023-03-01T07:02:20;24.80;1.00
19908;DHT22;10116;53.112;7.356;2023-03-01T07:04:45;24.90;1.00
19908;DHT22;10116;53.112;7.356;2023-03-01T07:07:11;24.80;1.00
19908;DHT22;10116;53.112;7.356;2023-03-01T07:09:37;24.80;1.00
19908;DHT22;10116;53.112;7.356;2023-03-01T07:12:02;24.80;1.00
19908;DHT22;10116;53.112;7.356;2023-03-01T07:14:28;24.80;1.00
19908;DHT22;10116;53.112;7.356;2023-03-01T07:16:54;24.80;1.00
19908;DHT22;10116;53.112;7.356;2023-03-01T07:19:21;24.80;1.00
19908;DHT22;10116;53.112;7.356;2023-03-01T07:21:47;24.80;1.00
19908;DHT22;10116;53.112;7.356;2023-03-01T07:24:12;24.80;1.00
19908;DHT22;10116;53.112;7.356;2023-03-01T07:26:38;24.80;1.00
19908;DHT22;10116;53.112;7.356;2023-03-01T07:29:07;24.70;1.00
19908;DHT22;10116;53.112;7.356;2023-03-01T07:31:32;24.70;1.00
19908;DHT22;10116;53.112;7.356;2023-03-01T07:33:58;24.70;1.00
19908;DHT22;10116;53.112;7.356;2023-03-01T07:36:24;24.70;1.00
19908;DHT22;10116;53.112;7.356;2023-03-01T07:38:50;24.60;1.00
19908;DHT22;10116;53.112;7.356;2023-03-01T07:41:16;24.60;1.00
19908;DHT22;10116;53.112;7.356;2023-03-01T07:43:42;24.60;1.00
19908;DHT22;10116;53.112;7.356;2023-03-01T07:46:07;24.70;1.00
19908;DHT22;10116;53.112;7.356;2023-03-01T07:48:34;24.70;1.00
19908;DHT22;10116;53.112;7.356;2023-03-01T07:51:01;24.80;1.00
19908;DHT22;10116;53.112;7.356;2023-03-01T07:53:27;24.80;1.00
19908;DHT22;10116;53.112;7.356;2023-03-01T07:58:31;24.80;1.00
19908;DHT22;10116;53.112;7.356;2023-03-01T08:01:05;24.70;1.00
19908;DHT22;10116;53.112;7.356;2023-03-01T08:03:31;24.80;1.00
19908;DHT22;10116;53.112;7.356;2023-03-01T08:06:00;24.80;1.00
19908;DHT22;10116;53.112;7.356;2023-03-01T08:08:26;24.70;1.00
19908;DHT22;10116;53.112;7.356;2023-03-01T08:10:52;24.70;1.00
19908;DHT22;10116;53.112;7.356;2023-03-01T08:13:18;24.70;1.00
19908;DHT22;10116;53.112;7.356;2023-03-01T08:15:48;24.70;1.00
19908;DHT22;10116;53.112;7.356;2023-03-01T08:18:16;24.60;1.00
19908;DHT22;10116;53.112;7.356;2023-03-01T08:20:42;24.60;1.00
19908;DHT22;10116;53.112;7.356;2023-03-01T08:23:08;24.60;1.00
19908;DHT22;10116;53.112;7.356;2023-03-01T08:25:35;24.60;1.00
19908;DHT22;10116;53.112;7.356;2023-03-01T08:28:00;24.60;1.00
19908;DHT22;10116;53.112;7.356;2023-03-01T08:30:26;24.50;1.00
19908;DHT22;10116;53.112;7.356;2023-03-01T08:32:52;24.50;1.00
19908;DHT22;10116;53.112;7.356;2023-03-01T08:35:19;24.50;1.00
19908;DHT22;10116;53.112;7.356;2023-03-01T08:37:45;24.50;1.00
19908;DHT22;10116;53.112;7.356;2023-03-01T08:40:11;24.30;1.00
19908;DHT22;10116;53.112;7.356;2023-03-01T08:42:39;24.30;1.00
19908;DHT22;10116;53.112;7.356;2023-03-01T08:45:06;24.10;1.00
19908;DHT22;10116;53.112;7.356;2023-03-01T08:47:32;24.10;1.00
19908;DHT22;10116;53.112;7.356;2023-03-01T08:49:59;24.00;1.00
19908;DHT22;10116;53.112;7.356;2023-03-01T08:52:25;23.90;1.00
19908;DHT22;10116;53.112;7.356;2023-03-01T08:54:51;24.00;1.00
19908;DHT22;10116;53.112;7.356;2023-03-01T08:57:17;24.00;1.00
19908;DHT22;10116;53.112;7.356;2023-03-01T08:59:42;24.10;1.00
19908;DHT22;10116;53.112;7.356;2023-03-01T09:02:17;24.10;1.00
19908;DHT22;10116;53.112;7.356;2023-03-01T09:04:44;24.10;1.00
19908;DHT22;10116;53.112;7.356;2023-03-01T09:07:10;24.20;1.00
19908;DHT22;10116;53.112;7.356;2023-03-01T09:09:37;24.20;1.00
19908;DHT22;10116;53.112;7.356;2023-03-01T09:12:03;24.20;1.00
19908;DHT22;10116;53.112;7.356;2023-03-01T09:14:29;24.20;1.00
19908;DHT22;10116;53.112;7.356;2023-03-01T09:16:54;24.20;1.00
19908;DHT22;10116;53.112;7.356;2023-03-01T09:19:20;24.20;1.00
19908;DHT22;10116;53.112;7.356;2023-03-01T09:21:46;24.20;1.00
19908;DHT22;10116;53.112;7.356;2023-03-01T09:24:19;24.20;1.00
19908;DHT22;10116;53.112;7.356;2023-03-01T09:26:45;24.20;1.00
19908;DHT22;10116;53.112;7.356;2023-03-01T09:29:12;24.20;1.00
19908;DHT22;10116;53.112;7.356;2023-03-01T09:31:38;24.10;1.00
19908;DHT22;10116;53.112;7.356;2023-03-01T09:34:04;24.10;1.00
19908;DHT22;10116;53.112;7.356;2023-03-01T09:36:30;24.10;1.00
19908;DHT22;10116;53.112;7.356;2023-03-01T09:38:57;24.10;1.00
19908;DHT22;10116;53.112;7.356;2023-03-01T09:41:45;24.10;1.00
19908;DHT22;10116;53.112;7.356;2023-03-01T09:44:35;24.10;1.00
19908;DHT22;10116;53.112;7.356;2023-03-01T09:47:02;24.10;1.00
19908;DHT22;10116;53.112;7.356;2023-03-01T09:49:31;24.10;1.00
19908;DHT22;10116;53.112;7.356;2023-03-01T09:55:00;24.10;1.00
19908;DHT22;10116;53.112;7.356;2023-03-01T09:57:36;24.10;1.00
19908;DHT22;10116;53.112;7.356;2023-03-01T10:00:25;24.10;1.00
19908;DHT22;10116;53.112;7.356;2023-03-01T10:03:03;24.10;1.00
19908;DHT22;10116;53.112;7.356;2023-03-01T10:05:41;24.10;1.00
19908;DHT22;10116;53.112;7.356;2023-03-01T10:08:40;23.60;1.00
19908;DHT22;10116;53.112;7.356;2023-03-01T10:11:37;22.80;1.00
19908;DHT22;10116;53.112;7.356;2023-03-01T10:16:55;22.90;1.00
19908;DHT22;10116;53.112;7.356;2023-03-01T10:19:39;23.00;1.00
19908;DHT22;10116;53.112;7.356;2023-03-01T10:24:47;23.10;1.00
19908;DHT22;10116;53.112;7.356;2023-03-01T10:32:49;23.40;1.00
19908;DHT22;10116;53.112;7.356;2023-03-01T10:35:22;23.50;1.00
19908;DHT22;10116;53.112;7.356;2023-03-01T10:38:18;23.60;1.00
19908;DHT22;10116;53.112;7.356;2023-03-01T10:40:58;23.60;1.00
19908;DHT22;10116;53.112;7.356;2023-03-01T10:43:27;23.70;1.00
19908;DHT22;10116;53.112;7.356;2023-03-01T10:45:55;23.70;1.00
19908;DHT22;10116;53.112;7.356;2023-03-01T10:48:25;23.80;1.00
19908;DHT22;10116;53.112;7.356;2023-03-01T10:56:00;23.80;1.00
19908;DHT22;10116;53.112;7.356;2023-03-01T10:58:26;23.90;1.00
19908;DHT22;10116;53.112;7.356;2023-03-01T11:01:00;23.90;1.00
19908;DHT22;10116;53.112;7.356;2023-03-01T11:03:30;23.90;1.00
19908;DHT22;10116;53.112;7.356;2023-03-01T11:06:20;23.90;1.00
19908;DHT22;10116;53.112;7.356;2023-03-01T11:08:48;23.90;1.00
19908;DHT22;10116;53.112;7.356;2023-03-01T11:11:30;24.00;1.00
19908;DHT22;10116;53.112;7.356;2023-03-01T11:14:20;24.10;1.00
19908;DHT22;10116;53.112;7.356;2023-03-01T11:17:05;24.10;1.00
19908;DHT22;10116;53.112;7.356;2023-03-01T11:19:32;24.20;1.00
19908;DHT22;10116;53.112;7.356;2023-03-01T11:22:16;24.20;1.00
19908;DHT22;10116;53.112;7.356;2023-03-01T11:24:54;24.30;1.00
19908;DHT22;10116;53.112;7.356;2023-03-01T11:27:33;24.30;1.00
19908;DHT22;10116;53.112;7.356;2023-03-01T11:36:13;24.30;1.00
19908;DHT22;10116;53.112;7.356;2023-03-01T11:38:41;24.40;1.00
19908;DHT22;10116;53.112;7.356;2023-03-01T12:03:53;24.30;1.00
19908;DHT22;10116;53.112;7.356;2023-03-01T12:17:36;24.50;1.00
19908;DHT22;10116;53.112;7.356;2023-03-01T12:25:54;24.50;1.00
19908;DHT22;10116;53.112;7.356;2023-03-01T12:34:05;24.40;1.00
19908;DHT22;10116;53.112;7.356;2023-03-01T12:42:22;24.50;1.00
19908;DHT22;10116;53.112;7.356;2023-03-01T12:48:00;24.50;1.00
19908;DHT22;10116;53.112;7.356;2023-03-01T12:50:52;24.40;1.00
19908;DHT22;10116;53.112;7.356;2023-03-01T12:53:49;24.40;1.00
19908;DHT22;10116;53.112;7.356;2023-03-01T12:56:24;24.40;1.00
19908;DHT22;10116;53.112;7.356;2023-03-01T13:07:05;24.40;1.00
19908;DHT22;10116;53.112;7.356;2023-03-01T13:09:55;24.40;1.00
19908;DHT22;10116;53.112;7.356;2023-03-01T13:17:51;24.40;1.00
19908;DHT22;10116;53.112;7.356;2023-03-01T13:20:20;24.40;1.00
19908;DHT22;10116;53.112;7.356;2023-03-01T13:22:47;24.40;1.00
19908;DHT22;10116;53.112;7.356;2023-03-01T13:25:19;24.40;1.00
19908;DHT22;10116;53.112;7.356;2023-03-01T13:27:46;24.40;1.00
19908;DHT22;10116;53.112;7.356;2023-03-01T13:35:48;24.30;1.00
19908;DHT22;10116;53.112;7.356;2023-03-01T13:41:03;24.30;1.00
19908;DHT22;10116;53.112;7.356;2023-03-01T13:43:35;24.30;1.00
19908;DHT22;10116;53.112;7.356;2023-03-01T13:46:11;24.30;1.00
19908;DHT22;10116;53.112;7.356;2023-03-01T13:48:39;24.20;1.00
19908;DHT22;10116;53.112;7.356;2023-03-01T13:51:10;24.20;1.00
19908;DHT22;10116;53.112;7.356;2023-03-01T13:53:40;24.20;1.00
19908;DHT22;10116;53.112;7.356;2023-03-01T13:56:10;24.20;1.00
19908;DHT22;10116;53.112;7.356;2023-03-01T13:59:01;24.20;1.00
19908;DHT22;10116;53.112;7.356;2023-03-01T14:01:33;24.20;1.00
19908;DHT22;10116;53.112;7.356;2023-03-01T14:03:59;24.10;1.00
19908;DHT22;10116;53.112;7.356;2023-03-01T14:06:28;24.10;1.00
19908;DHT22;10116;53.112;7.356;2023-03-01T14:09:34;24.10;1.00
19908;DHT22;10116;53.112;7.356;2023-03-01T14:20:18;24.10;1.00
19908;DHT22;10116;53.112;7.356;2023-03-01T14:22:45;24.20;1.00
19908;DHT22;10116;53.112;7.356;2023-03-01T14:27:56;24.30;1.00
19908;DHT22;10116;53.112;7.356;2023-03-01T14:33:03;24.30;1.00
19908;DHT22;10116;53.112;7.356;2023-03-01T14:35:34;24.30;1.00
19908;DHT22;10116;53.112;7.356;2023-03-01T14:38:01;24.30;1.00
19908;DHT22;10116;53.112;7.356;2023-03-01T14:40:30;24.30;1.00
19908;DHT22;10116;53.112;7.356;2023-03-01T14:42:59;24.30;1.00
19908;DHT22;10116;53.112;7.356;2023-03-01T14:45:27;24.30;1.00
19908;DHT22;10116;53.112;7.356;2023-03-01T14:47:55;24.30;1.00
19908;DHT22;10116;53.112;7.356;2023-03-01T14:50:27;24.30;1.00
19908;DHT22;10116;53.112;7.356;2023-03-01T14:52:59;24.30;1.00
19908;DHT22;10116;53.112;7.356;2023-03-01T14:55:27;24.30;1.00
19908;DHT22;10116;53.112;7.356;2023-03-01T14:57:54;24.30;1.00
19908;DHT22;10116;53.112;7.356;2023-03-01T15:00:28;24.30;1.00
19908;DHT22;10116;53.112;7.356;2023-03-01T15:02:57;24.30;1.00
19908;DHT22;10116;53.112;7.356;2023-03-01T15:05:32;24.30;1.00
19908;DHT22;10116;53.112;7.356;2023-03-01T15:08:00;24.20;1.00
19908;DHT22;10116;53.112;7.356;2023-03-01T15:10:29;24.20;1.00
19908;DHT22;10116;53.112;7.356;2023-03-01T15:12:56;24.20;1.00
19908;DHT22;10116;53.112;7.356;2023-03-01T15:17:58;24.20;1.00
19908;DHT22;10116;53.112;7.356;2023-03-01T15:20:25;24.20;1.00
19908;DHT22;10116;53.112;7.356;2023-03-01T15:22:56;24.20;1.00
19908;DHT22;10116;53.112;7.356;2023-03-01T15:25:27;24.10;1.00
19908;DHT22;10116;53.112;7.356;2023-03-01T15:27:54;24.10;1.00
19908;DHT22;10116;53.112;7.356;2023-03-01T15:32:49;24.20;1.00
19908;DHT22;10116;53.112;7.356;2023-03-01T15:35:49;24.20;1.00
19908;DHT22;10116;53.112;7.356;2023-03-01T15:41:31;24.30;1.00
19908;DHT22;10116;53.112;7.356;2023-03-01T15:43:58;24.30;1.00
19908;DHT22;10116;53.112;7.356;2023-03-01T15:46:32;24.30;1.00
19908;DHT22;10116;53.112;7.356;2023-03-01T15:49:00;24.30;1.00
19908;DHT22;10116;53.112;7.356;2023-03-01T15:51:36;24.30;1.00
19908;DHT22;10116;53.112;7.356;2023-03-01T15:54:23;24.30;1.00
19908;DHT22;10116;53.112;7.356;2023-03-01T15:56:49;24.30;1.00
19908;DHT22;10116;53.112;7.356;2023-03-01T15:59:16;24.20;1.00
19908;DHT22;10116;53.112;7.356;2023-03-01T16:01:42;24.20;1.00
19908;DHT22;10116;53.112;7.356;2023-03-01T16:04:10;24.20;1.00
19908;DHT22;10116;53.112;7.356;2023-03-01T16:06:39;24.20;1.00
19908;DHT22;10116;53.112;7.356;2023-03-01T16:09:05;24.20;1.00
19908;DHT22;10116;53.112;7.356;2023-03-01T16:11:30;24.20;1.00
19908;DHT22;10116;53.112;7.356;2023-03-01T16:13:58;24.10;1.00
19908;DHT22;10116;53.112;7.356;2023-03-01T16:16:23;24.10;1.00
19908;DHT22;10116;53.112;7.356;2023-03-01T16:18:49;24.10;1.00
19908;DHT22;10116;53.112;7.356;2023-03-01T16:21:22;24.10;1.00
19908;DHT22;10116;53.112;7.356;2023-03-01T16:23:48;24.10;1.00
19908;DHT22;10116;53.112;7.356;2023-03-01T16:26:14;24.10;1.00
19908;DHT22;10116;53.112;7.356;2023-03-01T16:28:41;24.10;1.00
19908;DHT22;10116;53.112;7.356;2023-03-01T16:31:07;24.20;1.00
19908;DHT22;10116;53.112;7.356;2023-03-01T16:33:33;24.20;1.00
19908;DHT22;10116;53.112;7.356;2023-03-01T16:36:07;24.20;1.00
19908;DHT22;10116;53.112;7.356;2023-03-01T16:38:33;24.30;1.00
19908;DHT22;10116;53.112;7.356;2023-03-01T16:41:00;24.30;1.00
19908;DHT22;10116;53.112;7.356;2023-03-01T16:43:25;24.30;1.00
19908;DHT22;10116;53.112;7.356;2023-03-01T16:45:51;24.30;1.00
19908;DHT22;10116;53.112;7.356;2023-03-01T16:48:17;24.30;1.00
19908;DHT22;10116;53.112;7.356;2023-03-01T16:50:42;24.40;1.00
19908;DHT22;10116;53.112;7.356;2023-03-01T16:53:08;24.40;1.00
19908;DHT22;10116;53.112;7.356;2023-03-01T16:55:34;24.40;1.00
19908;DHT22;10116;53.112;7.356;2023-03-01T16:58:00;24.40;1.00
19908;DHT22;10116;53.112;7.356;2023-03-01T17:00:26;24.50;1.00
19908;DHT22;10116;53.112;7.356;2023-03-01T17:02:51;24.50;1.00
19908;DHT22;10116;53.112;7.356;2023-03-01T17:05:17;24.50;1.00
19908;DHT22;10116;53.112;7.356;2023-03-01T17:07:46;24.50;1.00
19908;DHT22;10116;53.112;7.356;2023-03-01T17:10:12;24.50;1.00
19908;DHT22;10116;53.112;7.356;2023-03-01T17:12:37;24.50;1.00
19908;DHT22;10116;53.112;7.356;2023-03-01T17:15:04;24.50;1.00
19908;DHT22;10116;53.112;7.356;2023-03-01T17:17:31;24.50;1.00
19908;DHT22;10116;53.112;7.356;2023-03-01T17:19:56;24.60;1.00
19908;DHT22;10116;53.112;7.356;2023-03-01T17:22:22;24.60;1.00
19908;DHT22;10116;53.112;7.356;2023-03-01T17:24:48;24.60;1.00
19908;DHT22;10116;53.112;7.356;2023-03-01T17:27:14;24.60;1.00
19908;DHT22;10116;53.112;7.356;2023-03-01T17:29:40;24.60;1.00
19908;DHT22;10116;53.112;7.356;2023-03-01T17:32:07;24.70;1.00
19908;DHT22;10116;53.112;7.356;2023-03-01T17:34:33;24.70;1.00
19908;DHT22;10116;53.112;7.356;2023-03-01T17:36:59;24.70;1.00
19908;DHT22;10116;53.112;7.356;2023-03-01T17:39:25;24.70;1.00
19908;DHT22;10116;53.112;7.356;2023-03-01T17:41:55;24.60;1.00
19908;DHT22;10116;53.112;7.356;2023-03-01T17:44:21;24.60;1.00
19908;DHT22;10116;53.112;7.356;2023-03-01T17:46:47;24.60;1.00
19908;DHT22;10116;53.112;7.356;2023-03-01T17:49:13;24.60;1.00
19908;DHT22;10116;53.112;7.356;2023-03-01T17:51:38;24.60;1.00
19908;DHT22;10116;53.112;7.356;2023-03-01T17:54:04;24.60;1.00
19908;DHT22;10116;53.112;7.356;2023-03-01T17:56:30;24.50;1.00
19908;DHT22;10116;53.112;7.356;2023-03-01T17:58:59;24.50;1.00
19908;DHT22;10116;53.112;7.356;2023-03-01T18:01:26;24.50;1.00
19908;DHT22;10116;53.112;7.356;2023-03-01T18:03:52;24.50;1.00
19908;DHT22;10116;53.112;7.356;2023-03-01T18:06:21;24.50;1.00
19908;DHT22;10116;53.112;7.356;2023-03-01T18:08:47;24.50;1.00
19908;DHT22;10116;53.112;7.356;2023-03-01T18:11:16;24.40;1.00
19908;DHT22;10116;53.112;7.356;2023-03-01T18:13:42;24.40;1.00